Time;durP1;ratioP1;P1;durP2;ratioP2;P2;SDS_P1;SDS_P2;PMS_P1;PMS_P2;Temp;Humidity;BMP_temperature;BMP_pressure;BME280_temperature;BME280_humidity;BME280_pressure;Samples;Min_cycle;Max_cycle;Signal;HPM_P1;HPM_P2
2021/10/25 00:02:24;;;;;;;15.67;7.33;;;11.00;99.90;;;;;;5058623;28;20180;-86
2021/10/25 00:04:49;;;;;;;14.27;7.43;;;11.00;99.90;;;;;;5041601;28;20193;-85
2021/10/25 00:07:15;;;;;;;16.80;7.90;;;10.90;99.90;;;;;;5042524;28;20669;-85
2021/10/25 00:09:42;;;;;;;15.73;7.83;;;11.00;99.90;;;;;;5043691;28;20197;-85
2021/10/25 00:12:08;;;;;;;15.90;7.10;;;11.00;99.90;;;;;;5058186;28;20186;-85
2021/10/25 00:14:34;;;;;;;15.00;7.47;;;11.00;99.90;;;;;;5058581;28;20221;-85
2021/10/25 00:16:59;;;;;;;15.10;7.13;;;11.00;99.90;;;;;;5057745;28;20660;-85
2021/10/25 00:19:25;;;;;;;15.90;7.00;;;11.00;99.90;;;;;;5058966;28;20186;-85
2021/10/25 00:21:51;;;;;;;16.00;6.97;;;11.10;99.90;;;;;;5073628;28;20721;-85
2021/10/25 00:24:18;;;;;;;15.33;7.00;;;11.10;99.90;;;;;;5043538;28;20198;-85
2021/10/25 00:26:43;;;;;;;17.03;7.27;;;11.00;99.90;;;;;;5057210;28;20202;-86
2021/10/25 00:29:09;;;;;;;13.23;6.83;;;10.90;99.90;;;;;;5057890;28;20186;-85
2021/10/25 00:31:35;;;;;;;17.43;6.57;;;10.80;99.90;;;;;;5056787;28;20273;-86
2021/10/25 00:34:01;;;;;;;15.80;7.23;;;10.90;99.90;;;;;;5041243;28;20299;-86
2021/10/25 00:36:27;;;;;;;15.30;6.57;;;11.00;99.90;;;;;;5041483;28;20271;-85
2021/10/25 00:38:53;;;;;;;15.07;6.73;;;11.00;99.90;;;;;;5041968;28;20219;-85
2021/10/25 00:41:18;;;;;;;14.60;6.80;;;11.00;99.90;;;;;;5041866;28;20640;-85
2021/10/25 00:43:45;;;;;;;15.33;7.07;;;11.00;99.90;;;;;;5057749;28;20258;-85
2021/10/25 00:46:11;;;;;;;13.33;5.83;;;11.10;99.90;;;;;;5040001;28;20804;-85
2021/10/25 00:48:38;;;;;;;14.43;6.80;;;11.10;99.90;;;;;;5039915;28;20644;-84
2021/10/25 00:51:05;;;;;;;14.10;6.03;;;11.10;99.90;;;;;;5058503;28;20203;-85
2021/10/25 00:53:32;;;;;;;13.50;6.20;;;11.10;99.90;;;;;;5041547;28;20195;-84
2021/10/25 00:56:04;;;;;;;14.57;6.07;;;11.20;99.90;;;;;;5056707;28;20190;-86
2021/10/25 00:58:33;;;;;;;15.03;6.47;;;11.10;99.90;;;;;;5059121;28;20218;-85
2021/10/25 01:00:59;;;;;;;13.60;6.60;;;11.20;99.90;;;;;;5038869;28;20187;-86
2021/10/25 01:03:26;;;;;;;17.10;6.20;;;11.10;99.90;;;;;;5056636;28;20235;-85
2021/10/25 01:05:52;;;;;;;13.03;6.17;;;11.20;99.90;;;;;;5041627;28;20701;-85
2021/10/25 01:08:17;;;;;;;15.60;6.70;;;11.20;99.90;;;;;;5041613;28;20183;-84
2021/10/25 01:10:44;;;;;;;13.67;6.13;;;11.20;99.90;;;;;;5056453;28;20291;-85
2021/10/25 01:13:11;;;;;;;13.20;5.93;;;11.20;99.90;;;;;;5058150;28;20253;-85
2021/10/25 01:15:37;;;;;;;12.53;6.07;;;11.20;99.90;;;;;;5040996;28;20189;-84
2021/10/25 01:18:03;;;;;;;13.17;5.97;;;11.20;99.90;;;;;;5056758;28;20207;-85
2021/10/25 01:20:31;;;;;;;13.20;6.30;;;11.20;99.90;;;;;;5040790;28;20433;-86
2021/10/25 01:23:00;;;;;;;11.83;5.53;;;11.10;99.90;;;;;;5050480;28;20183;-85
2021/10/25 01:25:27;;;;;;;14.30;5.67;;;11.20;99.90;;;;;;5058301;28;20177;-85
2021/10/25 01:27:56;;;;;;;13.60;5.03;;;11.30;99.90;;;;;;5047155;28;20188;-85
2021/10/25 01:30:22;;;;;;;12.07;5.27;;;11.30;99.90;;;;;;5040085;28;20233;-85
2021/10/25 01:32:49;;;;;;;13.40;5.17;;;11.40;99.90;;;;;;5037980;28;20269;-85
2021/10/25 01:35:15;;;;;;;12.63;4.80;;;11.40;99.90;;;;;;5053746;28;20651;-85
2021/10/25 01:37:42;;;;;;;13.27;5.10;;;11.30;99.90;;;;;;5055271;28;20222;-86
2021/10/25 01:40:09;;;;;;;9.77;5.00;;;11.40;99.90;;;;;;5055930;28;20277;-84
2021/10/25 01:42:36;;;;;;;14.20;4.90;;;11.30;99.90;;;;;;5056786;28;20190;-85
2021/10/25 01:45:06;;;;;;;12.03;4.47;;;11.40;99.90;;;;;;5055950;28;20615;-86
2021/10/25 01:47:32;;;;;;;10.23;4.93;;;11.30;99.90;;;;;;5038059;28;20218;-89
2021/10/25 01:49:58;;;;;;;9.53;4.00;;;11.40;99.90;;;;;;5041842;28;20203;-87
2021/10/25 01:52:24;;;;;;;9.87;4.37;;;11.40;99.90;;;;;;5041000;28;20268;-87
2021/10/25 01:54:55;;;;;;;9.70;4.33;;;11.40;99.90;;;;;;5041730;28;20199;-88
2021/10/25 01:57:20;;;;;;;10.07;4.10;;;11.50;99.90;;;;;;5039729;28;20211;-86
2021/10/25 01:59:46;;;;;;;11.67;4.73;;;11.50;99.90;;;;;;5054929;28;20683;-87
2021/10/25 02:02:15;;;;;;;9.43;4.63;;;11.50;99.90;;;;;;5057655;28;20176;-87
2021/10/25 02:04:42;;;;;;;9.37;4.30;;;11.50;99.90;;;;;;5056179;28;20692;-86
2021/10/25 02:07:08;;;;;;;9.80;4.10;;;11.40;99.90;;;;;;5058883;28;20592;-86
2021/10/25 02:09:34;;;;;;;8.97;3.77;;;11.40;99.90;;;;;;5055819;28;20206;-86
2021/10/25 02:12:00;;;;;;;10.63;4.13;;;11.40;99.90;;;;;;5058488;28;20178;-86
2021/10/25 02:14:26;;;;;;;12.83;4.70;;;11.30;99.90;;;;;;5057942;28;20172;-87
2021/10/25 02:16:52;;;;;;;9.30;4.27;;;11.40;99.90;;;;;;5055603;28;20226;-85
2021/10/25 02:19:18;;;;;;;12.57;4.10;;;11.40;99.90;;;;;;5039286;28;20616;-86
2021/10/25 02:22:10;;;;;;;9.17;4.40;;;11.40;99.90;;;;;;5065400;28;20213;-86
2021/10/25 02:24:36;;;;;;;12.43;4.50;;;11.50;99.90;;;;;;5039983;28;20218;-87
2021/10/25 02:27:04;;;;;;;11.87;4.23;;;11.60;99.90;;;;;;5036107;28;20195;-87
2021/10/25 02:29:38;;;;;;;13.40;4.80;;;11.70;99.90;;;;;;5037241;28;20187;-86
2021/10/25 02:32:22;;;;;;;10.57;4.07;;;11.80;99.90;;;;;;5052550;28;20317;-85
2021/10/25 02:34:49;;;;;;;9.63;3.80;;;11.90;99.90;;;;;;5056766;28;20172;-86
2021/10/25 02:37:18;;;;;;;8.23;4.10;;;12.00;99.90;;;;;;5036643;28;20256;-86
2021/10/25 02:39:45;;;;;;;9.53;3.87;;;12.00;99.90;;;;;;5055187;28;20175;-86
2021/10/25 02:42:12;;;;;;;12.23;4.70;;;12.00;99.90;;;;;;5056133;28;20176;-86
2021/10/25 02:44:39;;;;;;;9.13;3.97;;;12.00;99.90;;;;;;5053576;28;20313;-86
2021/10/25 02:47:06;;;;;;;12.30;4.27;;;12.00;99.90;;;;;;5037444;28;20176;-86
2021/10/25 02:49:32;;;;;;;9.80;3.87;;;12.10;99.90;;;;;;5033127;28;20547;-87
2021/10/25 02:51:58;;;;;;;12.05;4.30;;;12.00;99.90;;;;;;5056477;28;20449;-86
2021/10/25 02:54:25;;;;;;;10.23;4.00;;;12.00;99.90;;;;;;5037995;28;20176;-87
2021/10/25 02:56:52;;;;;;;11.87;4.23;;;12.10;99.90;;;;;;5055927;28;20183;-86
2021/10/25 02:59:21;;;;;;;8.30;3.60;;;12.20;99.90;;;;;;5056352;28;20551;-86
2021/10/25 03:01:47;;;;;;;9.70;3.93;;;12.20;99.90;;;;;;5039128;28;20176;-87
2021/10/25 03:04:13;;;;;;;9.27;4.10;;;12.20;99.90;;;;;;5054858;28;20179;-87
2021/10/25 03:06:39;;;;;;;10.47;4.20;;;12.40;99.90;;;;;;5055262;28;20278;-87
2021/10/25 03:09:07;;;;;;;10.17;4.57;;;12.40;99.90;;;;;;5058524;28;20311;-86
2021/10/25 03:11:34;;;;;;;11.27;4.00;;;12.40;99.90;;;;;;5038813;28;20181;-86
2021/10/25 03:14:01;;;;;;;10.33;3.80;;;12.50;99.90;;;;;;5038949;28;20185;-87
2021/10/25 03:16:33;;;;;;;9.97;4.10;;;12.50;99.90;;;;;;5056274;28;20229;-86
2021/10/25 03:18:59;;;;;;;11.40;3.90;;;12.50;99.90;;;;;;5038241;28;20208;-86
2021/10/25 03:21:26;;;;;;;10.73;3.43;;;12.60;99.90;;;;;;5053735;28;20187;-86
2021/10/25 03:23:52;;;;;;;8.97;3.83;;;12.70;99.90;;;;;;5038593;28;20176;-86
2021/10/25 03:26:19;;;;;;;10.60;3.87;;;12.60;99.90;;;;;;5058356;28;20196;-86
2021/10/25 03:28:45;;;;;;;9.27;4.20;;;12.60;99.90;;;;;;5059950;28;20837;-86
2021/10/25 03:31:11;;;;;;;7.27;3.53;;;12.40;99.90;;;;;;5079178;28;20313;-85
2021/10/25 03:33:38;;;;;;;9.03;3.50;;;12.50;99.90;;;;;;5062462;28;20654;-85
2021/10/25 03:36:10;;;;;;;8.73;3.47;;;12.50;99.90;;;;;;5054568;28;20195;-86
2021/10/25 03:38:39;;;;;;;8.87;4.03;;;12.60;99.90;;;;;;5059001;28;20231;-85
2021/10/25 03:41:10;;;;;;;9.23;3.57;;;12.50;99.90;;;;;;5047066;28;20184;-86
2021/10/25 03:43:41;;;;;;;9.33;3.70;;;12.60;99.90;;;;;;5041682;28;20185;-85
2021/10/25 03:46:21;;;;;;;10.90;4.03;;;12.60;99.90;;;;;;5058937;28;20559;-86
2021/10/25 03:52:06;;;;;;;8.77;3.53;;;12.40;99.90;;;;;;5058591;28;20192;-85
2021/10/25 03:54:43;;;;;;;7.77;3.50;;;12.30;99.90;;;;;;5058367;28;20184;-86
2021/10/25 03:57:35;;;;;;;7.97;3.53;;;12.30;99.90;;;;;;5066099;28;20218;-86
2021/10/25 04:00:36;;;;;;;8.07;3.43;;;12.40;99.90;;;;;;5053585;28;20194;-85
2021/10/25 04:28:21;;;;;;;10.30;3.83;;;12.60;99.90;;;;;;5056400;28;20207;-85
2021/10/25 04:30:53;;;;;;;10.87;3.93;;;12.70;99.90;;;;;;5042050;28;20184;-86
2021/10/25 04:33:21;;;;;;;11.00;3.90;;;12.70;99.90;;;;;;5057492;28;20188;-87
2021/10/25 04:36:03;;;;;;;11.17;4.07;;;12.70;99.90;;;;;;5058994;28;20187;-86
2021/10/25 04:38:43;;;;;;;7.07;3.63;;;12.70;99.90;;;;;;5041491;28;20579;-85
2021/10/25 04:41:09;;;;;;;8.87;3.50;;;12.70;99.90;;;;;;5041047;28;20215;-86
2021/10/25 04:43:35;;;;;;;10.30;3.63;;;12.60;99.90;;;;;;5042383;28;20339;-85
2021/10/25 04:46:01;;;;;;;9.17;3.50;;;12.60;99.90;;;;;;5055942;28;20303;-86
2021/10/25 04:48:28;;;;;;;10.23;3.73;;;12.60;99.90;;;;;;5057936;28;20295;-87
2021/10/25 04:51:02;;;;;;;12.27;3.80;;;12.60;99.90;;;;;;5056478;28;20732;-86
2021/10/25 04:54:04;;;;;;;12.23;4.07;;;12.60;99.90;;;;;;5062036;28;20184;-86
2021/10/25 04:56:42;;;;;;;10.13;3.73;;;12.60;99.90;;;;;;5055800;28;20179;-87
2021/10/25 04:59:08;;;;;;;10.67;3.43;;;12.60;99.90;;;;;;5040465;28;20218;-85
2021/10/25 05:01:34;;;;;;;9.40;3.50;;;12.70;99.90;;;;;;5058189;28;20266;-86
2021/10/25 05:04:00;;;;;;;8.03;3.37;;;12.70;99.90;;;;;;5041734;28;20175;-87
2021/10/25 05:06:26;;;;;;;9.33;3.53;;;12.70;99.90;;;;;;5069577;28;20263;-86
2021/10/25 05:08:54;;;;;;;7.07;3.57;;;12.70;99.90;;;;;;5050955;28;20204;-87
2021/10/25 05:11:20;;;;;;;8.70;3.70;;;12.70;99.90;;;;;;5057165;28;20215;-88
2021/10/25 05:13:47;;;;;;;9.47;3.83;;;12.70;99.90;;;;;;5058043;28;20610;-88
2021/10/25 05:16:13;;;;;;;9.53;3.83;;;12.70;99.90;;;;;;5041457;28;20180;-87
2021/10/25 05:18:42;;;;;;;12.23;3.67;;;12.70;99.90;;;;;;5039576;28;20239;-88
2021/10/25 05:21:08;;;;;;;9.60;4.00;;;12.70;99.90;;;;;;5057172;28;20196;-88
2021/10/25 05:23:35;;;;;;;10.57;4.10;;;12.60;99.90;;;;;;5039672;28;20183;-88
2021/10/25 05:26:02;;;;;;;7.50;3.13;;;12.70;99.90;;;;;;5039307;28;20188;-87
2021/10/25 05:28:28;;;;;;;9.20;3.73;;;12.70;99.90;;;;;;5040097;28;20738;-88
2021/10/25 05:30:53;;;;;;;10.77;4.10;;;12.70;99.90;;;;;;5056987;28;20179;-88
2021/10/25 05:33:33;;;;;;;9.00;3.73;;;12.70;99.90;;;;;;5059065;28;20192;-88
2021/10/25 05:36:00;;;;;;;9.97;3.67;;;12.80;99.90;;;;;;5042586;28;20255;-87
2021/10/25 05:38:26;;;;;;;10.27;3.93;;;12.80;99.90;;;;;;5044330;28;20619;-87
2021/10/25 05:40:52;;;;;;;10.17;3.60;;;12.80;99.90;;;;;;5055210;28;20233;-88
2021/10/25 05:43:19;;;;;;;10.07;4.20;;;12.80;99.90;;;;;;5058678;28;20179;-88
2021/10/25 05:45:45;;;;;;;8.30;4.07;;;12.90;99.90;;;;;;5039805;28;20646;-88
2021/10/25 05:48:10;;;;;;;11.00;4.10;;;12.90;99.90;;;;;;5039478;28;20180;-88
2021/10/25 05:50:36;;;;;;;9.67;3.50;;;13.00;99.90;;;;;;5042126;28;20179;-87
2021/10/25 05:53:02;;;;;;;8.90;3.73;;;13.00;99.90;;;;;;5039881;28;20189;-89
2021/10/25 05:55:30;;;;;;;10.07;3.63;;;12.90;99.90;;;;;;5040715;28;20237;-87
2021/10/25 05:57:57;;;;;;;10.67;3.87;;;13.00;99.90;;;;;;5040464;28;20215;-89
2021/10/25 06:00:30;;;;;;;9.97;4.10;;;12.90;99.90;;;;;;5056777;28;20600;-89
2021/10/25 06:02:58;;;;;;;10.53;4.00;;;12.90;99.90;;;;;;5055870;28;20201;-87
2021/10/25 06:05:29;;;;;;;12.63;4.70;;;12.90;99.90;;;;;;5054264;28;20322;-85
2021/10/25 06:07:57;;;;;;;8.23;3.70;;;12.90;99.90;;;;;;5041031;28;20192;-87
2021/10/25 06:10:30;;;;;;;8.90;3.90;;;12.90;99.90;;;;;;5055158;28;20184;-87
2021/10/25 06:13:00;;;;;;;10.30;3.97;;;12.90;99.90;;;;;;5059743;28;20203;-87
2021/10/25 06:16:09;;;;;;;10.87;3.60;;;12.80;99.90;;;;;;5049826;28;20227;-87
2021/10/25 06:18:35;;;;;;;9.20;3.87;;;12.90;99.90;;;;;;5055360;28;20280;-88
2021/10/25 06:21:02;;;;;;;10.50;4.47;;;12.80;99.90;;;;;;5040065;28;20209;-86
2021/10/25 06:23:28;;;;;;;11.47;4.27;;;12.80;99.90;;;;;;5039828;28;20233;-87
2021/10/25 06:25:55;;;;;;;9.00;3.73;;;12.90;99.90;;;;;;5035842;28;20183;-88
2021/10/25 06:28:25;;;;;;;11.53;4.67;;;12.80;99.90;;;;;;5040403;28;20218;-87
2021/10/25 06:31:00;;;;;;;8.37;3.90;;;12.80;99.90;;;;;;5054401;28;20548;-87
2021/10/25 06:33:47;;;;;;;8.90;3.73;;;12.80;99.90;;;;;;5059799;28;20191;-88
2021/10/25 06:36:30;;;;;;;9.93;4.23;;;12.70;99.90;;;;;;5057753;28;20191;-87
2021/10/25 06:39:13;;;;;;;10.33;4.37;;;12.80;99.90;;;;;;5057498;28;20247;-86
2021/10/25 06:41:47;;;;;;;7.80;3.90;;;12.80;99.90;;;;;;5040260;28;20182;-86
2021/10/25 06:44:20;;;;;;;10.63;3.83;;;13.00;99.90;;;;;;5055971;28;20184;-87
2021/10/25 06:46:46;;;;;;;9.80;3.70;;;13.00;99.90;;;;;;5039654;28;20645;-87
2021/10/25 06:49:12;;;;;;;11.00;4.17;;;12.90;99.90;;;;;;5041235;28;20175;-88
2021/10/25 06:51:39;;;;;;;10.00;4.10;;;13.00;99.90;;;;;;5059581;28;20188;-87
2021/10/25 06:54:06;;;;;;;11.20;4.07;;;13.10;99.90;;;;;;5043903;28;20185;-87
2021/10/25 06:56:33;;;;;;;8.27;3.50;;;13.10;99.90;;;;;;5063752;28;20284;-88
2021/10/25 06:59:00;;;;;;;8.67;3.87;;;13.10;99.90;;;;;;5054963;28;20272;-86
2021/10/25 07:01:28;;;;;;;9.93;4.00;;;13.10;99.90;;;;;;5053491;28;20176;-88
2021/10/25 07:03:55;;;;;;;14.00;3.87;;;13.10;99.90;;;;;;5047675;28;20211;-86
2021/10/25 07:06:31;;;;;;;8.73;3.90;;;13.20;99.90;;;;;;5044575;28;20183;-85
2021/10/25 07:08:57;;;;;;;11.50;4.70;;;13.20;99.90;;;;;;5063713;28;20181;-88
2021/10/25 07:11:23;;;;;;;10.67;4.50;;;13.20;99.90;;;;;;5062198;28;20256;-86
2021/10/25 07:13:51;;;;;;;12.30;5.60;;;13.30;99.90;;;;;;5046504;28;20293;-88
2021/10/25 07:16:29;;;;;;;14.53;6.27;;;13.40;99.90;;;;;;5042080;28;20184;-87
2021/10/25 08:11:31;;;;;;;10.90;4.57;;;13.60;99.90;;;;;;5073723;28;20250;-87
2021/10/25 08:14:03;;;;;;;11.53;4.40;;;13.50;99.90;;;;;;5054514;28;20202;-86
2021/10/25 08:19:29;;;;;;;8.77;4.20;;;13.60;99.90;;;;;;5071929;28;20215;-86
2021/10/25 08:21:55;;;;;;;11.70;4.60;;;13.60;99.90;;;;;;5039509;28;20659;-86
2021/10/25 08:24:25;;;;;;;11.07;4.10;;;13.70;99.90;;;;;;5055889;28;20644;-86
2021/10/25 08:27:08;;;;;;;11.67;4.83;;;13.60;99.90;;;;;;5043295;28;20191;-87
2021/10/25 08:29:35;;;;;;;10.13;4.13;;;13.70;99.90;;;;;;5039721;28;20196;-87
2021/10/25 08:32:23;;;;;;;11.60;4.73;;;13.60;99.90;;;;;;5058526;28;20200;-86
2021/10/25 08:40:51;;;;;;;9.93;4.60;;;13.90;99.90;;;;;;5057980;28;20679;-85
2021/10/25 08:43:18;;;;;;;14.27;4.57;;;13.90;99.90;;;;;;5059663;28;20185;-88
2021/10/25 08:45:48;;;;;;;11.33;5.20;;;13.80;99.90;;;;;;5057013;28;20673;-86
2021/10/25 08:48:14;;;;;;;12.37;5.10;;;13.80;99.90;;;;;;5060014;28;20185;-86
2021/10/25 08:50:40;;;;;;;12.47;5.13;;;13.90;99.90;;;;;;5057110;28;20190;-87
2021/10/25 08:53:11;;;;;;;14.17;5.47;;;13.90;99.90;;;;;;5058970;28;20271;-88
2021/10/25 08:55:51;;;;;;;10.70;4.90;;;14.00;99.90;;;;;;5038313;28;20199;-87
2021/10/25 08:58:19;;;;;;;13.50;5.90;;;14.00;99.90;;;;;;5058612;28;20224;-87
2021/10/25 09:00:51;;;;;;;11.53;5.20;;;13.90;99.90;;;;;;5060814;28;20544;-87
2021/10/25 09:03:34;;;;;;;12.20;4.80;;;13.80;99.90;;;;;;5042661;28;20193;-86
2021/10/25 09:06:14;;;;;;;12.13;5.30;;;13.90;99.90;;;;;;5043355;28;20263;-87
2021/10/25 09:08:41;;;;;;;12.07;5.60;;;13.90;99.90;;;;;;5057863;28;20180;-87
2021/10/25 09:11:09;;;;;;;10.80;5.37;;;13.90;99.90;;;;;;5041755;28;20184;-87
2021/10/25 09:13:45;;;;;;;12.90;5.47;;;13.90;99.90;;;;;;5059876;28;20177;-86
2021/10/25 09:16:14;;;;;;;12.53;5.37;;;13.80;99.90;;;;;;5057134;28;20191;-87
2021/10/25 09:19:00;;;;;;;13.63;4.80;;;13.80;99.90;;;;;;5029317;28;20217;-87
2021/10/25 09:21:34;;;;;;;14.43;5.40;;;13.80;99.90;;;;;;5056589;28;20229;-86
2021/10/25 09:24:03;;;;;;;11.97;4.87;;;13.90;99.90;;;;;;5058120;28;20180;-87
2021/10/25 09:26:32;;;;;;;11.83;5.23;;;14.00;99.90;;;;;;5037775;28;20196;-87
2021/10/25 09:29:03;;;;;;;12.10;4.47;;;14.10;99.90;;;;;;5058704;28;20256;-88
2021/10/25 09:31:34;;;;;;;12.37;4.90;;;14.10;99.90;;;;;;5056536;28;20192;-87
2021/10/25 09:34:06;;;;;;;12.03;5.50;;;14.30;99.90;;;;;;5060218;28;20213;-87
2021/10/25 09:36:53;;;;;;;13.37;6.43;;;14.40;99.90;;;;;;5058674;28;20227;-88
2021/10/25 09:50:20;;;;;;;9.13;4.80;;;14.40;99.90;;;;;;5057233;28;20194;-87
2021/10/25 09:52:48;;;;;;;12.63;5.00;;;14.30;99.90;;;;;;5038922;28;20185;-86
2021/10/25 09:55:20;;;;;;;12.57;5.23;;;14.20;99.90;;;;;;5058746;28;20186;-87
2021/10/25 10:00:34;;;;;;;11.87;4.80;;;14.60;99.90;;;;;;5058040;28;20213;-87
2021/10/25 10:03:01;;;;;;;11.67;4.73;;;14.50;99.90;;;;;;5038104;28;20280;-87
2021/10/25 10:05:49;;;;;;;10.60;4.60;;;14.50;99.90;;;;;;5058821;28;20549;-87
2021/10/25 10:08:15;;;;;;;9.50;4.17;;;14.30;99.90;;;;;;5041112;28;20183;-87
2021/10/25 10:10:42;;;;;;;11.97;5.23;;;14.10;99.90;;;;;;5039422;28;20205;-87
2021/10/25 10:13:18;;;;;;;10.50;4.60;;;14.10;99.90;;;;;;5043667;28;20204;-87
2021/10/25 10:16:05;;;;;;;10.77;4.57;;;14.10;99.90;;;;;;5058611;28;20185;-87
2021/10/25 10:18:36;;;;;;;9.80;4.53;;;14.20;99.90;;;;;;5075558;28;20629;-87
2021/10/25 10:21:29;;;;;;;10.47;4.30;;;14.30;99.90;;;;;;5055862;28;20188;-87
2021/10/25 10:24:05;;;;;;;9.63;4.50;;;14.30;99.90;;;;;;5075146;28;20525;-86
2021/10/25 10:26:32;;;;;;;13.83;4.70;;;14.40;99.90;;;;;;5061519;28;20575;-86
2021/10/25 10:29:16;;;;;;;10.40;4.40;;;14.60;99.90;;;;;;5074344;28;20182;-87
2021/10/25 10:32:02;;;;;;;11.80;4.77;;;14.60;99.90;;;;;;5073958;28;20185;-87
2021/10/25 10:35:03;;;;;;;13.53;4.90;;;14.50;99.90;;;;;;5075444;28;20192;-86
2021/10/25 10:38:00;;;;;;;10.93;4.97;;;14.60;99.90;;;;;;5077119;28;20231;-88
2021/10/25 10:40:39;;;;;;;11.20;4.83;;;14.80;99.90;;;;;;5058663;28;20180;-88
2021/10/25 10:43:26;;;;;;;13.30;4.47;;;15.00;99.90;;;;;;5078601;28;20194;-87
2021/10/25 10:46:00;;;;;;;10.13;4.33;;;15.10;99.90;;;;;;5062043;28;20178;-85
2021/10/25 10:48:30;;;;;;;11.80;4.30;;;15.20;99.90;;;;;;5076567;28;20234;-87
2021/10/25 10:51:03;;;;;;;9.80;4.30;;;15.30;99.90;;;;;;5053610;28;20653;-86
2021/10/25 10:53:34;;;;;;;11.07;5.20;;;15.30;99.90;;;;;;5077601;28;20665;-86
2021/10/25 10:56:07;;;;;;;13.70;5.13;;;15.30;99.90;;;;;;5059325;28;20181;-86
2021/10/25 10:58:48;;;;;;;11.97;5.27;;;15.40;99.90;;;;;;5059129;28;20212;-85
2021/10/25 11:01:14;;;;;;;11.30;5.40;;;15.50;99.90;;;;;;5076456;28;20181;-87
2021/10/25 11:03:40;;;;;;;13.53;6.60;;;15.50;99.90;;;;;;5075083;28;20218;-86
2021/10/25 11:06:11;;;;;;;15.00;6.20;;;15.70;99.90;;;;;;5075499;28;20211;-87
2021/10/25 11:08:47;;;;;;;14.70;6.33;;;15.90;99.90;;;;;;5074670;28;20186;-87
2021/10/25 11:11:21;;;;;;;13.40;6.30;;;16.10;99.90;;;;;;5075676;28;20186;-87
2021/10/25 11:14:06;;;;;;;19.33;6.60;;;16.10;99.90;;;;;;5075031;28;20644;-87
2021/10/25 11:16:41;;;;;;;15.20;7.03;;;16.20;99.90;;;;;;5055147;28;20658;-87
2021/10/25 11:19:09;;;;;;;17.23;7.13;;;16.30;99.90;;;;;;5074682;28;20232;-87
2021/10/25 11:21:38;;;;;;;16.33;7.37;;;16.20;99.90;;;;;;5057798;28;20244;-87
2021/10/25 11:24:16;;;;;;;18.57;8.00;;;16.20;99.90;;;;;;5058474;28;20195;-87
2021/10/25 11:26:49;;;;;;;14.63;7.03;;;16.30;99.90;;;;;;5074729;28;20220;-86
2021/10/25 11:29:41;;;;;;;17.03;7.20;;;16.30;99.90;;;;;;5075361;28;20500;-86
2021/10/25 11:32:09;;;;;;;17.13;7.10;;;16.50;99.90;;;;;;5072156;28;20195;-86
2021/10/25 11:34:44;;;;;;;19.97;7.27;;;16.60;99.90;;;;;;5058932;28;20180;-88
2021/10/25 11:37:20;;;;;;;17.80;7.57;;;16.70;99.90;;;;;;5060190;28;20208;-86
2021/10/25 11:40:11;;;;;;;14.87;5.70;;;17.00;99.90;;;;;;5059400;28;20234;-87
2021/10/25 11:42:39;;;;;;;12.47;5.77;;;17.10;99.90;;;;;;5075806;28;20275;-87
2021/10/25 11:45:10;;;;;;;13.97;5.20;;;17.20;99.90;;;;;;5091173;28;20226;-87
2021/10/25 11:47:38;;;;;;;15.43;6.83;;;17.30;99.90;;;;;;5078218;28;20195;-86
2021/10/25 11:50:16;;;;;;;14.40;7.03;;;17.50;99.90;;;;;;5063025;28;20582;-87
2021/10/25 11:52:46;;;;;;;13.23;6.53;;;17.60;99.90;;;;;;5061972;28;20245;-87
2021/10/25 11:55:15;;;;;;;15.93;7.03;;;17.60;99.90;;;;;;5077463;28;20272;-86
2021/10/25 11:57:49;;;;;;;15.93;7.00;;;17.60;99.90;;;;;;5078361;28;20245;-87
2021/10/25 12:00:18;;;;;;;15.93;7.50;;;17.70;99.90;;;;;;5059243;28;20190;-87
2021/10/25 12:02:46;;;;;;;14.00;6.23;;;17.60;99.90;;;;;;5078251;28;20207;-86
2021/10/25 12:05:19;;;;;;;15.17;6.67;;;17.70;99.90;;;;;;5077763;28;20692;-86
2021/10/25 12:07:48;;;;;;;15.57;7.00;;;17.80;99.90;;;;;;5077466;28;20291;-87
2021/10/25 12:10:15;;;;;;;17.07;7.30;;;17.90;99.90;;;;;;5063284;28;20190;-88
2021/10/25 12:12:42;;;;;;;13.33;6.20;;;18.10;99.90;;;;;;5076830;28;20235;-86
2021/10/25 12:15:16;;;;;;;18.77;6.87;;;18.10;99.90;;;;;;5078440;28;20190;-87
2021/10/25 12:17:43;;;;;;;22.53;10.17;;;18.10;99.90;;;;;;5060918;28;20204;-88
2021/10/25 12:20:11;;;;;;;23.43;11.17;;;18.20;99.90;;;;;;5063734;28;20210;-86
2021/10/25 12:22:41;;;;;;;24.03;11.63;;;18.20;99.90;;;;;;5079363;28;20202;-86
2021/10/25 12:25:07;;;;;;;26.13;11.77;;;18.20;99.90;;;;;;5061023;28;20206;-87
2021/10/25 12:27:41;;;;;;;22.87;11.70;;;18.20;99.90;;;;;;5062665;28;20271;-88
2021/10/25 12:30:14;;;;;;;21.93;10.07;;;18.20;99.90;;;;;;5061074;28;20181;-87
2021/10/25 12:32:57;;;;;;;19.73;10.40;;;18.10;99.90;;;;;;5060312;28;20319;-87
2021/10/25 12:35:41;;;;;;;23.00;10.03;;;18.10;99.90;;;;;;5083599;28;20183;-88
2021/10/25 12:38:12;;;;;;;20.97;10.23;;;18.20;99.90;;;;;;5076557;28;20284;-87
2021/10/25 12:40:53;;;;;;;21.83;11.07;;;18.30;99.90;;;;;;5063621;28;20197;-87
2021/10/25 12:43:20;;;;;;;21.13;9.20;;;18.40;99.90;;;;;;5076752;28;20220;-87
2021/10/25 12:46:02;;;;;;;15.77;8.67;;;18.50;99.90;;;;;;5075890;28;20659;-88
2021/10/25 12:48:38;;;;;;;18.13;10.07;;;18.50;99.90;;;;;;5075154;28;20186;-86
2021/10/25 12:51:04;;;;;;;19.67;9.87;;;18.30;99.90;;;;;;5076296;28;20192;-87
2021/10/25 12:53:33;;;;;;;17.73;9.37;;;17.90;99.90;;;;;;5077204;28;20190;-87
2021/10/25 12:56:00;;;;;;;18.67;9.30;;;17.60;99.90;;;;;;5076962;28;20178;-88
2021/10/25 12:58:27;;;;;;;16.20;9.50;;;17.60;99.90;;;;;;5077854;28;20204;-86
2021/10/25 13:00:53;;;;;;;21.07;9.87;;;17.60;99.90;;;;;;5077560;28;20197;-88
2021/10/25 13:03:19;;;;;;;19.57;10.67;;;17.60;99.90;;;;;;5059483;28;20202;-87
2021/10/25 13:05:50;;;;;;;20.47;10.77;;;17.70;99.90;;;;;;5063170;28;20184;-88
2021/10/25 13:08:21;;;;;;;18.93;10.40;;;17.70;99.90;;;;;;5057538;28;20280;-87
2021/10/25 13:10:47;;;;;;;18.43;10.60;;;17.70;99.90;;;;;;5075512;28;20185;-87
2021/10/25 13:13:17;;;;;;;18.77;9.70;;;17.80;99.90;;;;;;5078494;28;20238;-87
2021/10/25 13:15:44;;;;;;;17.50;9.67;;;17.80;99.90;;;;;;5060147;28;20272;-87
2021/10/25 13:18:11;;;;;;;18.67;9.57;;;17.90;99.90;;;;;;5077242;28;20569;-87
2021/10/25 13:20:42;;;;;;;18.83;9.57;;;17.80;99.90;;;;;;5061609;28;20175;-87
2021/10/25 13:23:11;;;;;;;16.60;9.37;;;17.60;99.90;;;;;;5076213;28;20253;-86
2021/10/25 13:25:38;;;;;;;18.17;10.60;;;17.50;99.90;;;;;;5075417;28;20186;-87
2021/10/25 13:28:05;;;;;;;18.37;9.27;;;17.30;99.90;;;;;;5075100;28;20182;-87
2021/10/25 13:30:31;;;;;;;18.20;10.20;;;17.10;99.90;;;;;;5059806;28;20208;-87
2021/10/25 13:32:58;;;;;;;17.73;9.97;;;17.00;99.90;;;;;;5094237;28;20210;-87
2021/10/25 13:35:24;;;;;;;17.90;9.60;;;16.90;99.90;;;;;;5059166;28;20169;-87
2021/10/25 13:37:52;;;;;;;16.83;8.97;;;17.00;99.90;;;;;;5075087;28;20230;-87
2021/10/25 13:40:20;;;;;;;19.57;9.80;;;17.10;99.90;;;;;;5057435;28;20192;-87
2021/10/25 13:42:47;;;;;;;17.53;9.43;;;17.00;99.90;;;;;;5059552;28;20183;-86
2021/10/25 13:45:13;;;;;;;17.90;9.63;;;17.00;99.90;;;;;;5076278;28;20168;-86
2021/10/25 13:47:38;;;;;;;26.00;9.60;;;17.10;99.90;;;;;;5076652;28;20244;-86
2021/10/25 13:50:05;;;;;;;14.97;8.50;;;17.20;99.90;;;;;;5075953;28;20189;-87
2021/10/25 13:52:31;;;;;;;18.37;8.73;;;17.30;99.90;;;;;;5075835;28;20181;-86
2021/10/25 13:54:57;;;;;;;17.00;8.60;;;17.20;99.90;;;;;;5043859;28;20188;-86
2021/10/25 13:57:25;;;;;;;16.07;9.50;;;17.20;99.90;;;;;;5075504;28;20181;-87
2021/10/25 13:59:52;;;;;;;20.30;10.70;;;17.20;99.90;;;;;;5063754;28;20168;-86
2021/10/25 14:02:25;;;;;;;20.37;11.77;;;17.00;99.90;;;;;;5055561;28;20195;-87
2021/10/25 14:04:54;;;;;;;22.73;13.53;;;16.90;99.90;;;;;;5079106;28;20205;-86
2021/10/25 14:07:22;;;;;;;27.90;15.00;;;16.80;99.90;;;;;;5083398;28;20177;-86
2021/10/25 14:09:57;;;;;;;24.30;14.40;;;16.80;99.90;;;;;;5064552;28;20184;-88
2021/10/25 14:12:26;;;;;;;29.33;15.10;;;16.70;99.90;;;;;;5058267;28;20184;-86
2021/10/25 14:14:58;;;;;;;29.93;15.33;;;16.70;99.90;;;;;;5058160;28;20236;-87
2021/10/25 14:17:24;;;;;;;24.17;14.13;;;16.70;99.90;;;;;;5057548;28;20181;-86
2021/10/25 14:19:50;;;;;;;22.93;13.30;;;16.70;99.90;;;;;;5075025;28;20232;-89
2021/10/25 14:22:16;;;;;;;20.03;11.00;;;16.70;99.90;;;;;;5075458;28;20400;-87
2021/10/25 14:24:41;;;;;;;18.33;10.53;;;16.60;99.90;;;;;;5061603;28;20209;-87
2021/10/25 14:27:07;;;;;;;18.40;11.23;;;16.60;99.90;;;;;;5074143;28;20200;-86
2021/10/25 14:29:33;;;;;;;20.93;11.73;;;16.40;99.90;;;;;;5070424;28;20263;-88
2021/10/25 14:31:59;;;;;;;19.50;11.60;;;16.20;99.90;;;;;;5059395;28;20188;-86
2021/10/25 14:34:24;;;;;;;23.67;10.43;;;16.10;99.90;;;;;;5060511;28;20215;-88
2021/10/25 14:36:55;;;;;;;18.10;11.67;;;16.10;99.90;;;;;;5074578;28;20660;-88
2021/10/25 14:39:27;;;;;;;19.27;11.60;;;16.00;99.90;;;;;;5081512;28;20259;-86